Time;durP1;ratioP1;P1;durP2;ratioP2;P2;SDS_P1;SDS_P2;PMS_P1;PMS_P2;Temp;Humidity;BMP_temperature;BMP_pressure;BME280_temperature;BME280_humidity;BME280_pressure;Samples;Min_cycle;Max_cycle;Signal;HPM_P1;HPM_P2
2022/06/03 00:01:19;;;;;;;7.40;5.90;;;;;;;8.10;84.57;101735.75;10488346;28;20507;-75
2022/06/03 00:06:51;;;;;;;10.82;5.65;;;;;;;8.21;85.07;101726.97;10485672;28;20046;-74
2022/06/03 00:12:16;;;;;;;9.60;7.03;;;;;;;8.21;84.33;101734.81;10497514;28;20048;-75
2022/06/03 00:17:42;;;;;;;11.10;6.50;;;;;;;8.22;84.50;101728.78;10527086;28;20462;-75
2022/06/03 00:23:21;;;;;;;9.95;6.60;;;;;;;8.32;83.95;101727.75;10490773;28;20547;-75
2022/06/03 00:28:36;;;;;;;9.65;5.85;;;;;;;8.31;83.51;101730.25;10521741;28;20040;-74
2022/06/03 00:33:49;;;;;;;8.50;7.60;;;;;;;8.20;84.02;101725.19;10484027;28;20128;-74
2022/06/03 00:38:58;;;;;;;;;;;;;;;8.17;84.17;101727.56;10484928;28;20044;-74
2022/06/03 00:44:11;;;;;;;8.07;6.18;;;;;;;8.21;85.00;101726.97;10483132;28;19925;-74
2022/06/03 00:49:21;;;;;;;8.40;5.95;;;;;;;8.22;84.87;101722.69;10490604;28;20048;-74
2022/06/03 00:54:33;;;;;;;12.88;8.30;;;;;;;8.20;85.60;101719.97;10483744;28;20549;-75
2022/06/03 00:59:53;;;;;;;;;;;;;;;8.19;85.40;101720.75;10495341;28;20035;-75
2022/06/03 01:05:09;;;;;;;11.65;8.38;;;;;;;8.09;85.59;101715.69;10526110;28;19916;-75
2022/06/03 01:10:31;;;;;;;12.20;9.05;;;;;;;8.04;85.77;101730.09;10513127;28;20503;-75
2022/06/03 01:15:59;;;;;;;11.52;8.07;;;;;;;7.96;86.18;101718.22;10517686;28;20051;-75
2022/06/03 01:20:59;;;;;;;13.63;8.88;;;;;;;7.84;86.03;101715.63;10513468;28;20036;-75
2022/06/03 01:26:23;;;;;;;9.10;7.65;;;;;;;7.69;86.26;101710.19;10490745;28;20044;-75
2022/06/03 01:31:48;;;;;;;8.77;6.45;;;;;;;7.64;87.38;101710.78;10512098;28;20056;-75
2022/06/03 01:36:59;;;;;;;13.60;7.05;;;;;;;7.57;87.42;101707.63;10533518;28;20395;-75
2022/06/03 01:42:17;;;;;;;11.55;6.13;;;;;;;7.46;87.92;101704.22;10484757;28;20044;-75
2022/06/03 01:47:30;;;;;;;10.30;6.30;;;;;;;7.45;88.55;101692.91;10524106;28;20523;-75
2022/06/03 01:52:43;;;;;;;12.60;6.45;;;;;;;7.38;89.17;101700.13;10498608;28;20048;-75
2022/06/03 01:58:26;;;;;;;15.32;8.82;;;;;;;7.31;89.52;101693.59;10489826;28;20404;-75
2022/06/03 02:03:31;;;;;;;;;;;;;;;7.25;89.98;101698.34;10421263;28;20373;-74
2022/06/03 02:08:46;;;;;;;10.20;7.55;;;;;;;7.25;90.77;101693.13;10469175;28;20010;-75
2022/06/03 02:14:11;;;;;;;18.60;8.65;;;;;;;7.21;90.65;101684.16;10489965;28;20052;-75
2022/06/03 02:19:21;;;;;;;10.38;8.52;;;;;;;7.10;91.08;101674.66;10500153;28;20043;-75
2022/06/03 02:24:43;;;;;;;13.07;8.05;;;;;;;7.04;91.30;101669.91;10511942;28;20035;-74
2022/06/03 02:30:27;;;;;;;11.38;7.72;;;;;;;6.97;91.63;101665.91;10513336;28;20048;-76
2022/06/03 02:35:42;;;;;;;18.60;9.50;;;;;;;6.94;92.00;101659.59;10524442;28;20036;-75
2022/06/03 02:40:48;;;;;;;13.18;9.23;;;;;;;6.78;92.41;101661.03;10526169;28;20040;-75
2022/06/03 02:45:51;;;;;;;13.65;9.75;;;;;;;6.72;92.59;101663.19;10529926;28;20047;-75
2022/06/03 02:51:20;;;;;;;12.48;8.75;;;;;;;6.65;92.34;101668.72;10508955;28;20068;-74
2022/06/03 02:56:33;;;;;;;16.90;11.27;;;;;;;6.67;92.99;101672.34;10493049;28;20046;-75
2022/06/03 03:01:47;;;;;;;;;;;;;;;6.50;93.58;101668.41;10463822;28;20127;-74
2022/06/03 03:07:06;;;;;;;17.67;12.15;;;;;;;6.49;93.53;101658.81;10486194;28;20279;-75
2022/06/03 03:12:20;;;;;;;13.82;11.55;;;;;;;6.45;94.00;101660.28;10489136;28;20400;-75
2022/06/03 03:17:56;;;;;;;13.80;12.25;;;;;;;6.49;94.77;101659.72;10485408;28;20121;-74
2022/06/03 03:23:16;;;;;;;16.58;12.73;;;;;;;6.50;94.35;101663.22;10468872;28;20044;-75
2022/06/03 03:28:23;;;;;;;17.98;12.40;;;;;;;6.57;93.91;101657.69;10522881;28;20051;-74
2022/06/03 03:33:44;;;;;;;18.73;13.35;;;;;;;6.52;93.54;101653.84;10484769;28;20040;-74
2022/06/03 03:39:23;;;;;;;19.47;12.37;;;;;;;6.56;93.64;101653.28;10492391;28;20044;-74
2022/06/03 03:44:35;;;;;;;15.07;11.32;;;;;;;6.66;94.17;101657.50;10489036;28;20041;-74
2022/06/03 03:50:03;;;;;;;18.60;13.18;;;;;;;6.64;94.27;101649.56;10449280;28;20119;-74
2022/06/03 03:55:26;;;;;;;15.68;11.32;;;;;;;6.72;94.58;101651.06;10444249;28;20098;-74
2022/06/03 04:00:57;;;;;;;16.90;10.88;;;;;;;6.74;95.32;101646.00;10444065;28;20044;-75
2022/06/03 04:06:19;;;;;;;15.68;11.68;;;;;;;6.81;95.34;101643.06;10481569;28;20396;-75
2022/06/03 04:11:54;;;;;;;13.40;10.88;;;;;;;6.84;95.11;101648.50;10486229;28;20037;-74
2022/06/03 04:17:10;;;;;;;15.13;10.00;;;;;;;6.90;94.92;101642.84;10499227;28;20036;-74
2022/06/03 04:22:19;;;;;;;15.10;9.57;;;;;;;7.21;95.63;101639.91;10494102;28;20041;-74
2022/06/03 04:27:19;;;;;;;15.85;10.00;;;;;;;7.79;96.96;101639.72;10489848;28;20040;-74
2022/06/03 04:32:33;;;;;;;18.63;11.43;;;;;;;8.51;98.99;101627.34;10505773;28;20041;-74
2022/06/03 04:37:48;;;;;;;12.00;8.82;;;;;;;9.24;94.93;101626.91;10508919;28;20055;-74
2022/06/03 04:42:58;;;;;;;13.60;7.85;;;;;;;9.78;91.86;101622.53;10512463;28;20048;-75
2022/06/03 04:48:13;;;;;;;10.70;7.65;;;;;;;10.21;85.87;101631.22;10515768;28;20044;-75
2022/06/03 04:53:44;;;;;;;11.07;8.48;;;;;;;10.39;81.00;101631.44;10500405;28;20509;-74
2022/06/03 04:59:27;;;;;;;11.00;6.13;;;;;;;10.72;80.80;101622.13;10492168;28;20456;-74
2022/06/03 05:04:38;;;;;;;9.93;6.00;;;;;;;11.73;77.13;101625.19;10505608;28;20040;-74
2022/06/03 05:09:48;;;;;;;10.70;6.93;;;;;;;13.01;71.05;101616.97;10516643;28;20040;-74
2022/06/03 05:15:16;;;;;;;7.32;5.30;;;;;;;13.89;67.94;101607.13;10498760;28;20044;-75
2022/06/03 05:20:34;;;;;;;9.25;5.03;;;;;;;15.03;64.59;101610.28;10497705;28;20127;-75
2022/06/03 05:25:57;;;;;;;6.93;4.20;;;;;;;16.71;58.20;101601.63;10505452;28;20047;-75
2022/06/03 05:31:16;;;;;;;6.90;4.80;;;;;;;17.85;53.49;101605.22;10513870;28;20052;-75
2022/06/03 05:36:25;;;;;;;7.93;4.10;;;;;;;19.14;49.14;101591.03;10483389;28;20040;-75
2022/06/03 05:47:25;;;;;;;6.72;4.63;;;;;;;20.29;46.02;101597.88;10487787;28;20044;-76
2022/06/03 05:52:32;;;;;;;8.13;4.28;;;;;;;20.91;43.64;101591.03;10451488;28;20045;-74
2022/06/03 05:57:39;;;;;;;7.13;4.30;;;;;;;21.32;43.35;101587.22;10454193;28;20431;-75
2022/06/03 06:03:11;;;;;;;5.97;3.15;;;;;;;21.87;41.41;101578.22;10465852;28;20051;-75
2022/06/03 06:08:24;;;;;;;7.57;3.00;;;;;;;22.14;41.95;101580.28;10469267;28;20044;-75
2022/06/03 06:14:20;;;;;;;5.50;3.60;;;;;;;23.32;38.39;101576.00;10496177;28;20040;-74
2022/06/03 06:19:26;;;;;;;8.65;4.05;;;;;;;23.32;38.56;101570.69;10424120;28;20041;-75
2022/06/03 06:24:30;;;;;;;9.50;5.93;;;;;;;23.83;37.45;101586.06;10451238;28;20040;-75
2022/06/03 06:30:15;;;;;;;6.30;4.47;;;;;;;23.76;37.91;101578.00;10506075;28;20032;-75
2022/06/03 06:35:50;;;;;;;4.53;2.80;;;;;;;23.20;38.04;101579.47;10471625;28;20048;-74
2022/06/03 06:40:53;;;;;;;5.00;2.55;;;;;;;23.74;36.52;101568.22;10485022;28;20047;-74
2022/06/03 06:46:04;;;;;;;5.97;2.13;;;;;;;24.70;35.64;101576.47;10487996;28;20037;-74
2022/06/03 06:51:25;;;;;;;6.05;2.45;;;;;;;25.30;34.64;101574.63;10497730;28;20392;-74
2022/06/03 06:56:32;;;;;;;5.32;2.55;;;;;;;25.44;35.12;101585.31;10497481;28;20040;-75
2022/06/03 07:01:38;;;;;;;5.43;2.33;;;;;;;26.06;34.67;101582.41;10467454;28;20472;-76
2022/06/03 07:06:43;;;;;;;6.82;2.60;;;;;;;26.12;32.86;101578.78;10475786;28;20033;-75
2022/06/03 07:11:44;;;;;;;5.25;2.38;;;;;;;25.63;34.09;101576.38;10502077;28;20093;-76
2022/06/03 07:22:55;;;;;;;8.43;2.53;;;;;;;27.01;31.10;101562.94;10495768;28;20462;-74
2022/06/03 07:28:08;;;;;;;3.78;2.45;;;;;;;28.11;30.03;101558.97;10489706;28;20426;-74
2022/06/03 07:33:37;;;;;;;4.97;2.30;;;;;;;27.76;30.19;101563.91;10521842;28;20043;-74
2022/06/03 07:38:42;;;;;;;6.25;2.65;;;;;;;27.43;32.44;101558.00;10485775;28;20040;-73
2022/06/03 07:43:45;;;;;;;4.97;2.60;;;;;;;28.20;30.92;101549.88;10507299;28;20507;-74
2022/06/03 07:48:46;;;;;;;5.28;2.80;;;;;;;28.81;29.14;101539.03;10478920;28;20492;-74
2022/06/03 07:53:52;;;;;;;;;;;;;;;28.56;29.31;101542.13;10477366;28;20131;-74
2022/06/03 07:59:00;;;;;;;5.30;2.30;;;;;;;28.34;29.93;101547.84;10480275;28;20368;-74
2022/06/03 08:04:01;;;;;;;4.80;2.63;;;;;;;28.71;31.14;101525.69;10462949;28;20036;-74
2022/06/03 08:14:25;;;;;;;6.70;2.33;;;;;;;29.74;28.02;101516.53;10480993;28;19920;-74
2022/06/03 08:19:27;;;;;;;5.40;3.42;;;;;;;28.90;29.41;101520.00;10479415;28;20042;-75
2022/06/03 08:24:33;;;;;;;6.65;3.90;;;;;;;28.72;31.78;101514.00;10480563;28;20393;-75
2022/06/03 08:29:37;;;;;;;6.13;2.60;;;;;;;29.75;28.99;101509.31;10479878;28;20036;-74
2022/06/03 08:34:42;;;;;;;5.55;3.30;;;;;;;30.18;28.55;101504.75;10480857;28;20082;-75
2022/06/03 08:39:42;;;;;;;5.43;2.95;;;;;;;30.57;27.53;101506.47;10480058;28;20045;-75
2022/06/03 08:44:46;;;;;;;;;;;;;;;30.32;28.66;101508.00;10481920;28;20048;-74
2022/06/03 08:49:57;;;;;;;6.95;3.25;;;;;;;30.32;26.61;101502.59;10482524;28;20372;-73
2022/06/03 08:54:58;;;;;;;;;;;;;;;29.56;29.50;101512.41;10444183;28;20061;-74
2022/06/03 09:00:05;;;;;;;4.53;2.88;;;;;;;30.00;28.59;101509.69;10441275;28;20011;-74
2022/06/03 09:05:10;;;;;;;4.40;2.35;;;;;;;30.57;27.29;101517.28;10462920;28;20041;-74
2022/06/03 09:10:18;;;;;;;3.67;2.70;;;;;;;30.48;25.45;101513.00;10480925;28;20127;-74
2022/06/03 09:15:24;;;;;;;2.95;1.98;;;;;;;30.02;24.93;101515.03;10465148;28;20849;-74
2022/06/03 09:20:31;;;;;;;3.58;2.15;;;;;;;29.49;26.29;101508.09;10481932;28;20071;-74
2022/06/03 09:25:32;;;;;;;4.82;2.10;;;;;;;30.50;26.31;101504.84;10465442;28;20047;-74
2022/06/03 09:30:38;;;;;;;5.90;3.05;;;;;;;31.36;25.53;101498.94;10484305;28;20132;-74
2022/06/03 09:35:40;;;;;;;4.45;2.22;;;;;;;31.59;25.94;101500.94;10457009;28;20033;-73
2022/06/03 09:40:42;;;;;;;3.75;2.38;;;;;;;30.65;24.56;101492.81;10428811;28;20029;-75
2022/06/03 09:45:46;;;;;;;5.68;2.92;;;;;;;30.20;25.32;101497.50;10427298;28;20037;-75
2022/06/03 09:50:47;;;;;;;5.57;2.95;;;;;;;30.32;26.24;101482.81;10455824;28;20041;-75
2022/06/03 09:55:53;;;;;;;4.28;2.70;;;;;;;29.62;27.38;101489.84;10470965;28;20045;-74
2022/06/03 10:00:54;;;;;;;6.18;2.95;;;;;;;27.47;28.90;101500.63;10484292;28;20033;-73
2022/06/03 10:05:55;;;;;;;;;;;;;;;27.78;29.76;101486.78;10486659;28;20112;-74
2022/06/03 10:16:15;;;;;;;3.95;2.63;;;;;;;28.01;32.06;101468.53;10487694;28;20040;-73
2022/06/03 10:21:16;;;;;;;5.67;2.73;;;;;;;27.25;29.86;101484.78;10469498;28;20127;-73
2022/06/03 10:26:22;;;;;;;3.40;2.30;;;;;;;29.01;26.03;101482.97;10487228;28;20119;-73
2022/06/03 10:31:32;;;;;;;4.57;2.30;;;;;;;29.30;26.89;101464.44;10487667;28;20044;-73
2022/06/03 10:36:35;;;;;;;5.43;2.47;;;;;;;29.08;29.95;101456.81;10483742;28;20036;-73
2022/06/03 10:41:41;;;;;;;4.25;2.88;;;;;;;28.51;30.26;101449.78;10465561;28;20040;-73
2022/06/03 10:47:14;;;;;;;5.55;2.83;;;;;;;29.08;27.20;101450.50;10486666;28;20044;-74
2022/06/03 11:03:31;;;;;;;11.02;3.50;;;;;;;30.44;27.27;101451.91;10456483;28;20036;-75
2022/06/03 11:08:59;;;;;;;3.70;2.28;;;;;;;29.36;28.16;101449.94;10508162;28;20093;-75
2022/06/03 11:14:24;;;;;;;4.35;1.95;;;;;;;27.63;28.43;101450.28;10482229;28;20557;-74
2022/06/03 11:19:25;;;;;;;4.07;2.13;;;;;;;27.44;28.68;101443.34;10489531;28;20039;-74
2022/06/03 11:24:26;;;;;;;8.80;3.20;;;;;;;26.72;29.04;101438.81;10486689;28;20530;-74
2022/06/03 11:29:31;;;;;;;8.10;2.23;;;;;;;26.31;30.32;101440.97;10480455;28;20345;-75
2022/06/03 11:34:36;;;;;;;2.17;1.75;;;;;;;25.93;35.38;101434.09;10466480;28;20263;-75
2022/06/03 11:39:48;;;;;;;5.57;2.67;;;;;;;26.98;32.04;101445.72;10501331;28;20045;-76
2022/06/03 11:45:14;;;;;;;5.40;3.30;;;;;;;26.18;31.86;101436.63;10485502;28;20044;-74
2022/06/03 11:50:17;;;;;;;5.32;3.05;;;;;;;25.70;34.44;101431.59;10478474;28;20102;-75
2022/06/03 11:55:19;;;;;;;5.30;2.47;;;;;;;26.29;30.52;101428.50;10441639;28;20025;-74
2022/06/03 12:00:19;;;;;;;;;;;;;;;28.09;30.47;101416.38;10467330;28;20123;-74
2022/06/03 12:05:23;;;;;;;6.18;1.98;;;;;;;28.33;29.79;101421.41;10482760;28;20007;-75
2022/06/03 12:10:27;;;;;;;4.70;2.05;;;;;;;27.62;29.36;101424.31;10463958;28;20062;-75
2022/06/03 12:15:31;;;;;;;3.97;2.45;;;;;;;27.88;32.09;101403.28;10463536;28;20036;-75
2022/06/03 12:20:52;;;;;;;5.60;2.15;;;;;;;27.78;31.38;101406.13;10479132;28;20041;-74
2022/06/03 12:25:53;;;;;;;4.77;2.47;;;;;;;27.02;31.74;101408.94;10446619;28;20040;-75
2022/06/03 12:30:55;;;;;;;9.50;2.70;;;;;;;26.66;31.43;101406.66;10479099;28;20080;-74
2022/06/03 12:36:00;;;;;;;7.05;2.95;;;;;;;26.55;30.50;101398.72;10449682;28;20041;-73
2022/06/03 12:41:04;;;;;;;3.75;2.15;;;;;;;26.80;32.33;101393.97;10482852;28;20040;-73
2022/06/03 12:46:09;;;;;;;11.43;4.10;;;;;;;27.38;31.96;101386.09;10464717;28;20159;-75
2022/06/03 12:51:12;;;;;;;3.88;1.90;;;;;;;27.60;27.79;101393.88;10492669;28;20044;-73
2022/06/03 12:56:35;;;;;;;5.07;2.60;;;;;;;27.27;28.65;101399.66;10480549;28;20043;-73
2022/06/03 13:02:01;;;;;;;3.47;2.20;;;;;;;27.54;31.25;101391.28;10482801;28;20056;-73
2022/06/03 13:07:20;;;;;;;5.03;2.08;;;;;;;28.82;28.13;101390.88;10481682;28;20496;-74
2022/06/03 13:12:41;;;;;;;4.13;2.13;;;;;;;28.92;29.70;101390.69;10489585;28;20078;-73
2022/06/03 13:23:19;;;;;;;4.97;1.88;;;;;;;27.77;29.43;101398.09;10473185;28;20385;-74
2022/06/03 13:28:37;;;;;;;7.38;2.17;;;;;;;26.99;30.27;101400.94;10505767;28;20039;-73
2022/06/03 13:34:00;;;;;;;7.03;2.33;;;;;;;26.71;31.33;101385.13;10493156;28;20024;-74
2022/06/03 13:39:01;;;;;;;4.30;2.20;;;;;;;27.02;31.87;101393.75;10488319;28;20044;-75
2022/06/03 13:44:07;;;;;;;8.80;5.85;;;;;;;27.16;33.36;101390.00;10505560;28;20077;-74
2022/06/03 13:49:15;;;;;;;9.45;6.38;;;;;;;26.61;30.74;101384.34;10476717;28;20032;-75
2022/06/03 13:54:18;;;;;;;4.88;2.45;;;;;;;26.04;31.97;101392.00;10500775;28;20049;-74
2022/06/03 13:59:19;;;;;;;5.85;2.80;;;;;;;26.31;34.12;101384.63;10489754;28;20041;-73
2022/06/03 14:04:26;;;;;;;6.03;3.53;;;;;;;26.29;34.32;101385.56;10481930;28;20526;-73
2022/06/03 14:09:37;;;;;;;6.13;3.90;;;;;;;26.49;33.15;101391.63;10484363;28;20400;-74
2022/06/03 14:14:42;;;;;;;3.50;2.22;;;;;;;26.26;33.76;101394.53;10508663;27;20037;-73
2022/06/03 14:19:48;;;;;;;4.13;3.13;;;;;;;26.33;33.66;101395.38;10482114;28;20126;-73
2022/06/03 14:24:58;;;;;;;8.07;2.38;;;;;;;27.06;33.39;101391.88;10474878;28;20045;-74
2022/06/03 14:30:02;;;;;;;6.88;4.78;;;;;;;27.41;31.85;101386.06;10467268;28;20043;-75
2022/06/03 14:35:09;;;;;;;5.47;3.20;;;;;;;26.52;32.63;101382.63;10498400;28;20041;-74
2022/06/03 14:40:15;;;;;;;7.75;4.65;;;;;;;26.01;33.68;101391.16;10507686;28;20036;-75
2022/06/03 14:45:16;;;;;;;5.43;2.70;;;;;;;25.88;35.64;101385.00;10491275;28;20037;-74
2022/06/03 14:50:24;;;;;;;5.27;3.03;;;;;;;25.84;35.37;101380.56;10466118;28;20036;-74
2022/06/03 14:55:26;;;;;;;7.72;2.97;;;;;;;25.73;36.51;101376.16;10483873;28;20502;-74
2022/06/03 15:00:45;;;;;;;;;;;;;;;25.73;34.82;101372.63;10481146;28;20033;-73
2022/06/03 15:05:59;;;;;;;9.15;3.65;;;;;;;25.39;34.29;101379.03;10479404;28;19928;-74
2022/06/03 15:11:12;;;;;;;4.80;2.75;;;;;;;25.19;36.60;101374.69;10482237;28;20368;-74
2022/06/03 15:16:14;;;;;;;7.18;3.03;;;;;;;25.16;35.62;101369.34;10471000;28;21902;-73
2022/06/03 15:21:25;;;;;;;;;;;;;;;25.10;34.40;101368.50;10488923;28;20033;-73
2022/06/03 15:26:29;;;;;;;4.93;2.57;;;;;;;25.13;35.58;101361.31;10487731;28;19928;-73
2022/06/03 15:31:31;;;;;;;4.50;2.28;;;;;;;25.28;36.93;101363.03;10485736;28;20044;-73
2022/06/03 15:36:44;;;;;;;3.55;2.30;;;;;;;25.23;35.79;101362.19;10478169;28;20025;-73
2022/06/03 15:41:50;;;;;;;7.05;2.50;;;;;;;25.30;34.87;101358.56;10469015;28;20077;-73
2022/06/03 15:47:04;;;;;;;5.05;2.50;;;;;;;24.78;35.02;101359.69;10473145;28;20124;-73
2022/06/03 15:52:09;;;;;;;6.32;3.70;;;;;;;24.41;38.00;101359.78;10475126;28;20040;-73
2022/06/03 15:57:43;;;;;;;6.35;2.65;;;;;;;24.23;39.55;101356.22;10478030;28;20140;-72
2022/06/03 16:02:55;;;;;;;4.00;2.63;;;;;;;24.10;37.70;101357.13;10488146;28;20051;-73
2022/06/03 16:08:07;;;;;;;;;;;;;;;24.28;38.43;101353.56;10484622;28;20029;-73
2022/06/03 16:13:16;;;;;;;3.03;2.28;;;;;;;24.16;40.25;101358.03;10514367;28;20406;-73
2022/06/03 16:18:46;;;;;;;10.30;3.03;;;;;;;24.08;40.32;101350.91;10482019;28;20079;-72
2022/06/03 16:23:51;;;;;;;6.53;2.38;;;;;;;23.79;39.73;101359.78;10467541;28;20169;-72
2022/06/03 16:29:18;;;;;;;4.28;2.47;;;;;;;23.66;38.48;101359.78;10474513;28;20071;-72
2022/06/03 16:34:29;;;;;;;5.13;2.40;;;;;;;23.52;41.04;101365.13;10461471;28;20373;-74
2022/06/03 16:39:42;;;;;;;3.03;1.90;;;;;;;23.52;41.06;101367.78;10477155;28;20052;-74
2022/06/03 16:44:51;;;;;;;2.83;2.13;;;;;;;23.61;40.78;101370.47;10481951;28;20068;-73
2022/06/03 16:50:10;;;;;;;5.88;1.95;;;;;;;23.74;41.37;101366.00;10465056;28;20029;-73
2022/06/03 16:55:35;;;;;;;4.25;2.88;;;;;;;23.82;39.39;101363.38;10460689;28;20123;-72
2022/06/03 17:00:50;;;;;;;3.20;2.20;;;;;;;23.98;40.14;101366.91;10485953;28;20178;-73
2022/06/03 17:05:52;;;;;;;4.57;2.88;;;;;;;23.94;40.09;101356.25;10497519;28;20555;-73
2022/06/03 17:10:53;;;;;;;4.20;2.70;;;;;;;23.81;41.37;101358.00;10494781;28;20102;-73
2022/06/03 17:15:53;;;;;;;12.67;6.10;;;;;;;23.49;40.35;101365.09;10476388;28;20178;-73
2022/06/03 17:20:54;;;;;;;6.50;2.70;;;;;;;23.39;42.38;101364.19;10490823;28;20058;-73
2022/06/03 17:25:57;;;;;;;10.15;4.93;;;;;;;23.13;42.33;101372.09;10482973;28;20389;-73
2022/06/03 17:31:24;;;;;;;4.40;2.42;;;;;;;22.71;42.70;101370.13;10480897;28;20464;-73
2022/06/03 17:36:40;;;;;;;4.78;2.60;;;;;;;22.22;44.30;101378.66;10481991;28;20083;-73
2022/06/03 17:42:35;;;;;;;5.20;3.20;;;;;;;21.71;45.87;101378.25;10483486;28;20646;-73
2022/06/03 17:47:50;;;;;;;4.38;3.10;;;;;;;21.46;45.78;101382.38;10427148;28;20095;-73
2022/06/03 17:58:47;;;;;;;3.30;2.47;;;;;;;21.26;46.50;101368.00;10489770;28;20365;-74
2022/06/03 18:04:00;;;;;;;5.30;3.13;;;;;;;21.17;47.30;101366.97;10482669;28;20143;-73
2022/06/03 18:09:15;;;;;;;4.93;3.08;;;;;;;21.02;47.75;101367.72;10449253;28;20029;-73
2022/06/03 18:14:25;;;;;;;4.97;3.10;;;;;;;20.78;49.16;101374.50;10431453;28;20051;-73
2022/06/03 18:19:34;;;;;;;5.22;3.15;;;;;;;20.65;49.01;101376.03;10445095;28;20044;-73
2022/06/03 18:24:34;;;;;;;4.18;3.13;;;;;;;20.63;49.11;101376.03;10429518;28;20040;-73
2022/06/03 18:29:37;;;;;;;4.70;2.78;;;;;;;20.61;48.65;101384.84;10447623;28;20045;-73
2022/06/03 18:34:52;;;;;;;3.72;3.05;;;;;;;20.52;48.78;101389.16;10446395;28;20546;-72
2022/06/03 18:40:07;;;;;;;3.88;2.50;;;;;;;20.44;48.66;101389.94;10460578;28;20037;-73
2022/06/03 18:45:16;;;;;;;4.07;2.53;;;;;;;20.26;49.78;101391.44;10459945;28;20040;-72
2022/06/03 18:51:01;;;;;;;4.40;2.45;;;;;;;19.87;50.52;101387.22;10438875;28;20052;-73
2022/06/03 18:56:01;;;;;;;4.93;2.75;;;;;;;19.62;50.23;101377.03;10416226;28;20044;-73
2022/06/03 19:01:03;;;;;;;4.88;2.85;;;;;;;19.43;50.57;101385.50;10477641;28;20041;-74
2022/06/03 19:06:07;;;;;;;;;;;;;;;19.07;51.79;101400.72;10484744;28;20041;-73
2022/06/03 19:11:23;;;;;;;4.50;2.90;;;;;;;18.76;52.53;101402.69;10485635;28;19964;-73
2022/06/03 19:16:24;;;;;;;3.50;2.55;;;;;;;18.60;53.27;101398.78;10508986;28;20499;-73
2022/06/03 19:21:33;;;;;;;3.45;2.95;;;;;;;18.39;54.41;101404.47;10510575;28;20044;-73
2022/06/03 19:26:52;;;;;;;3.92;2.83;;;;;;;18.21;54.86;101411.13;10498487;28;20564;-72
2022/06/03 19:32:04;;;;;;;5.65;3.22;;;;;;;18.00;55.34;101407.06;10526658;28;20063;-73
2022/06/03 19:37:44;;;;;;;5.10;3.67;;;;;;;17.87;55.66;101420.81;10491725;28;20062;-73
2022/06/03 19:42:57;;;;;;;4.70;3.22;;;;;;;17.87;55.40;101426.13;10527116;28;20404;-73
2022/06/03 19:48:04;;;;;;;6.63;2.50;;;;;;;17.79;55.37;101436.47;10475150;28;20045;-73
2022/06/03 19:53:48;;;;;;;4.88;3.15;;;;;;;17.70;55.89;101438.88;10444998;28;20033;-73
2022/06/03 19:59:04;;;;;;;6.20;3.30;;;;;;;17.70;55.48;101449.47;10475797;28;20557;-73
2022/06/03 20:04:21;;;;;;;5.10;3.00;;;;;;;17.67;56.00;101455.59;10486070;28;20040;-73
2022/06/03 20:09:45;;;;;;;5.78;2.90;;;;;;;17.59;55.68;101451.81;10485919;28;20128;-73
2022/06/03 20:14:50;;;;;;;5.50;2.80;;;;;;;17.49;56.04;101469.19;10483560;28;20041;-73
2022/06/03 20:19:57;;;;;;;6.03;3.85;;;;;;;17.33;56.76;101467.84;10483537;28;20129;-73
2022/06/03 20:25:08;;;;;;;5.95;2.75;;;;;;;17.29;56.58;101471.25;10465412;28;20476;-73
2022/06/03 20:30:19;;;;;;;3.65;2.80;;;;;;;17.23;57.23;101481.66;10482846;28;20106;-73
2022/06/03 20:35:40;;;;;;;4.00;2.80;;;;;;;17.10;57.81;101483.94;10499999;28;20114;-72
2022/06/03 20:40:50;;;;;;;3.53;2.45;;;;;;;16.92;58.27;101489.50;10514119;28;20071;-73
2022/06/03 20:45:56;;;;;;;6.00;2.95;;;;;;;16.79;59.19;101497.88;10490353;28;20491;-72
2022/06/03 20:51:05;;;;;;;4.85;3.03;;;;;;;16.71;59.69;101495.88;10519811;28;20119;-73
2022/06/03 20:56:25;;;;;;;6.32;3.55;;;;;;;16.64;60.14;101509.75;10506003;28;20514;-73
2022/06/03 21:01:33;;;;;;;6.22;3.45;;;;;;;16.42;61.35;101511.69;10473740;28;20044;-73
2022/06/03 21:17:19;;;;;;;7.70;3.35;;;;;;;16.59;60.93;101524.56;10486035;28;20123;-73
2022/06/03 21:22:28;;;;;;;5.05;3.90;;;;;;;16.64;61.06;101522.09;10480539;28;20067;-73
2022/06/03 21:27:30;;;;;;;4.10;3.63;;;;;;;16.63;60.59;101525.56;10483931;28;20114;-72
2022/06/03 21:32:45;;;;;;;5.32;3.67;;;;;;;16.70;60.33;101519.66;10490370;28;20515;-72
2022/06/03 21:38:00;;;;;;;5.15;3.35;;;;;;;16.76;59.72;101524.22;10472369;28;20602;-73
2022/06/03 21:43:05;;;;;;;8.38;4.18;;;;;;;16.81;59.14;101517.34;10501653;28;20230;-72
2022/06/03 21:48:27;;;;;;;7.70;6.25;;;;;;;16.79;59.51;101529.59;10471402;28;20044;-73
2022/06/03 21:54:00;;;;;;;12.95;6.28;;;;;;;16.69;59.44;101534.59;10504464;28;20045;-73
2022/06/03 21:59:23;;;;;;;;;;;;;;;16.67;59.46;101541.56;10480420;28;20100;-73
2022/06/03 22:04:23;;;;;;;4.65;3.75;;;;;;;16.62;59.48;101548.44;10496630;28;19924;-73
2022/06/03 22:09:24;;;;;;;4.88;3.88;;;;;;;16.69;58.49;101541.63;10475087;28;20036;-72
2022/06/03 22:14:24;;;;;;;7.80;3.90;;;;;;;16.79;57.53;101546.38;10495702;28;20373;-73
2022/06/03 22:19:25;;;;;;;5.18;3.85;;;;;;;16.79;57.81;101556.94;10490520;28;20119;-73
2022/06/03 22:24:26;;;;;;;5.15;3.40;;;;;;;16.70;57.70;101552.25;10486200;28;20089;-73
2022/06/03 22:29:55;;;;;;;6.43;3.47;;;;;;;16.64;58.41;101536.19;10469379;28;20043;-73
2022/06/03 22:35:07;;;;;;;7.72;3.85;;;;;;;16.46;58.58;101539.13;10484751;28;20041;-73
2022/06/03 22:40:41;;;;;;;5.60;3.15;;;;;;;16.44;58.65;101540.81;10496166;28;20047;-73
2022/06/03 22:45:42;;;;;;;5.88;3.58;;;;;;;16.27;59.61;101549.03;10463090;28;20044;-73
2022/06/03 22:50:42;;;;;;;4.60;3.15;;;;;;;16.07;60.49;101553.59;10485996;28;20079;-73
2022/06/03 22:55:46;;;;;;;4.78;3.50;;;;;;;16.11;60.33;101554.63;10485230;28;20048;-72
2022/06/03 23:00:46;;;;;;;4.90;2.63;;;;;;;15.99;60.68;101553.34;10503394;28;20101;-73
2022/06/03 23:05:48;;;;;;;3.95;2.58;;;;;;;15.92;60.67;101548.69;10528930;28;20122;-73
2022/06/03 23:10:48;;;;;;;6.83;3.03;;;;;;;15.92;60.37;101542.50;10511768;28;20040;-73
2022/06/03 23:15:49;;;;;;;5.97;2.60;;;;;;;15.82;60.06;101533.31;10489356;28;20122;-73
2022/06/03 23:20:50;;;;;;;4.35;3.10;;;;;;;15.72;60.22;101537.34;10507697;28;20079;-73
2022/06/03 23:25:59;;;;;;;4.27;2.53;;;;;;;15.56;60.97;101551.72;10485787;28;20556;-73
2022/06/03 23:30:59;;;;;;;5.13;3.35;;;;;;;15.39;61.20;101553.69;10472023;28;20024;-73
2022/06/03 23:36:00;;;;;;;4.93;2.60;;;;;;;15.41;60.91;101562.56;10526842;28;20039;-72
2022/06/03 23:41:01;;;;;;;6.97;2.30;;;;;;;15.32;60.65;101559.56;10485621;28;20028;-72
2022/06/03 23:46:01;;;;;;;8.50;2.83;;;;;;;15.16;61.49;101569.50;10484374;28;20123;-73
2022/06/03 23:51:02;;;;;;;5.05;2.47;;;;;;;15.02;62.00;101566.31;10489241;28;20043;-73
2022/06/03 23:56:03;;;;;;;4.03;2.47;;;;;;;14.98;61.83;101554.72;10524586;28;20071;-72
